createdAt,value
2022-08-28T00:01:19.778Z,8.60
2022-08-28T00:03:48.033Z,9.10
2022-08-28T00:06:16.696Z,9.05
2022-08-28T00:08:45.595Z,10.25
2022-08-28T00:11:14.678Z,9.52
2022-08-28T00:13:44.031Z,9.07
2022-08-28T00:16:14.234Z,9.73
2022-08-28T00:18:43.538Z,8.65
2022-08-28T00:21:16.799Z,9.18
2022-08-28T00:23:45.641Z,9.30
2022-08-28T00:26:37.885Z,8.02
2022-08-28T00:29:08.717Z,8.80
2022-08-28T00:31:40.651Z,9.13
2022-08-28T00:34:11.130Z,10.00
2022-08-28T00:36:41.809Z,9.77
2022-08-28T00:39:11.855Z,9.80
2022-08-28T00:41:42.347Z,9.52
2022-08-28T00:44:20.928Z,8.57
2022-08-28T00:46:53.161Z,9.70
2022-08-28T00:49:26.691Z,9.07
2022-08-28T00:52:11.883Z,8.80
2022-08-28T00:54:59.358Z,9.95
2022-08-28T00:57:32.804Z,9.18
2022-08-28T01:00:05.085Z,9.60
2022-08-28T01:02:33.948Z,9.48
2022-08-28T01:05:09.995Z,9.85
2022-08-28T01:07:39.421Z,9.18
2022-08-28T01:10:12.825Z,9.90
2022-08-28T01:12:42.405Z,9.25
2022-08-28T01:15:17.085Z,8.88
2022-08-28T01:17:52.964Z,9.75
2022-08-28T01:20:27.594Z,8.88
2022-08-28T01:23:19.689Z,9.40
2022-08-28T01:25:49.571Z,8.68
2022-08-28T01:28:19.077Z,8.85
2022-08-28T01:30:49.694Z,8.77
2022-08-28T01:33:20.198Z,9.13
2022-08-28T01:35:57.921Z,8.68
2022-08-28T01:38:28.128Z,9.00
2022-08-28T01:41:00.078Z,9.10
2022-08-28T01:43:28.758Z,9.00
2022-08-28T01:46:02.562Z,9.73
2022-08-28T01:48:36.309Z,8.25
2022-08-28T01:51:06.925Z,9.07
2022-08-28T01:53:36.491Z,7.97
2022-08-28T01:56:09.095Z,9.20
2022-08-28T01:58:38.858Z,9.13
2022-08-28T02:03:40.156Z,8.20
2022-08-28T02:06:08.638Z,9.05
2022-08-28T02:08:37.431Z,9.50
2022-08-28T02:11:09.273Z,9.75
2022-08-28T02:13:39.009Z,8.68
2022-08-28T02:16:10.055Z,8.52
2022-08-28T02:18:39.140Z,8.85
2022-08-28T02:21:08.946Z,9.10
2022-08-28T02:23:40.232Z,10.00
2022-08-28T02:26:10.283Z,8.85
2022-08-28T02:28:39.325Z,9.15
2022-08-28T02:31:11.177Z,8.73
2022-08-28T02:33:41.728Z,8.90
2022-08-28T02:36:12.011Z,8.75
2022-08-28T02:38:40.665Z,9.20
2022-08-28T02:41:09.836Z,9.05
2022-08-28T02:43:40.205Z,8.13
2022-08-28T02:46:09.824Z,9.00
2022-08-28T02:48:41.741Z,8.27
2022-08-28T02:51:16.440Z,9.52
2022-08-28T02:53:45.505Z,9.15
2022-08-28T02:56:15.543Z,8.80
2022-08-28T02:58:44.854Z,8.75
2022-08-28T03:03:43.292Z,9.20
2022-08-28T03:06:13.824Z,8.95
2022-08-28T03:08:43.397Z,9.70
2022-08-28T03:11:13.698Z,9.15
2022-08-28T03:16:11.862Z,8.63
2022-08-28T03:18:41.881Z,9.20
2022-08-28T03:21:11.490Z,8.75
2022-08-28T03:23:40.748Z,9.73
2022-08-28T03:28:49.837Z,10.23
2022-08-28T03:31:24.397Z,8.73
2022-08-28T03:33:54.598Z,9.52
2022-08-28T03:36:27.101Z,9.73
2022-08-28T03:38:59.977Z,9.57
2022-08-28T03:41:31.505Z,8.80
2022-08-28T03:44:01.961Z,9.68
2022-08-28T03:46:33.927Z,9.20
2022-08-28T03:49:04.150Z,8.27
2022-08-28T03:51:35.432Z,9.30
2022-08-28T03:54:05.181Z,8.77
2022-08-28T03:56:34.405Z,9.38
2022-08-28T03:59:05.707Z,8.15
2022-08-28T04:01:34.641Z,9.05
2022-08-28T04:04:03.657Z,8.43
2022-08-28T04:06:32.768Z,8.60
2022-08-28T04:09:03.054Z,9.25
2022-08-28T04:11:37.253Z,9.40
2022-08-28T04:14:06.394Z,8.63
2022-08-28T04:16:36.700Z,9.48
2022-08-28T04:19:05.316Z,8.15
2022-08-28T04:21:35.305Z,10.52
2022-08-28T04:24:09.032Z,9.40
2022-08-28T04:26:40.685Z,8.43
2022-08-28T04:29:09.404Z,9.30
2022-08-28T04:31:38.485Z,9.45
2022-08-28T04:34:09.578Z,8.85
2022-08-28T04:36:38.837Z,8.30
2022-08-28T04:39:09.421Z,8.18
2022-08-28T04:41:39.175Z,7.70
2022-08-28T04:44:09.390Z,9.02
2022-08-28T04:46:38.949Z,8.80
2022-08-28T04:49:07.582Z,8.40
2022-08-28T04:51:41.397Z,8.02
2022-08-28T04:54:11.637Z,8.50
2022-08-28T04:56:41.797Z,8.90
2022-08-28T04:59:12.150Z,8.43
2022-08-28T05:01:43.033Z,8.40
2022-08-28T05:04:12.333Z,7.65
2022-08-28T05:06:46.648Z,7.72
2022-08-28T05:09:20.569Z,7.40
2022-08-28T05:11:50.143Z,8.15
2022-08-28T05:14:18.825Z,8.18
2022-08-28T05:16:49.820Z,7.15
2022-08-28T05:19:21.296Z,7.07
2022-08-28T05:21:50.039Z,7.72
2022-08-28T05:24:18.879Z,6.88
2022-08-28T05:26:49.504Z,7.03
2022-08-28T05:29:19.411Z,7.45
2022-08-28T05:31:48.297Z,7.13
2022-08-28T05:36:48.079Z,6.72
2022-08-28T05:39:17.666Z,6.88
2022-08-28T05:41:47.674Z,7.63
2022-08-28T05:46:51.381Z,7.95
2022-08-28T05:49:20.521Z,6.72
2022-08-28T05:51:49.877Z,7.53
2022-08-28T05:54:18.402Z,7.53
2022-08-28T05:56:50.364Z,7.55
2022-08-28T05:59:19.341Z,6.78
2022-08-28T06:01:50.618Z,6.90
2022-08-28T06:04:26.360Z,7.18
2022-08-28T06:06:56.337Z,6.95
2022-08-28T06:09:30.285Z,7.70
2022-08-28T06:12:02.667Z,7.85
2022-08-28T06:14:32.625Z,6.50
2022-08-28T06:17:02.775Z,7.13
2022-08-28T06:19:37.228Z,7.70
2022-08-28T06:22:10.545Z,6.78
2022-08-28T06:24:40.184Z,6.90
2022-08-28T06:27:12.286Z,6.97
2022-08-28T06:29:42.211Z,6.70
2022-08-28T06:32:24.881Z,6.20
2022-08-28T06:34:59.555Z,6.10
2022-08-28T06:37:28.168Z,6.72
2022-08-28T06:39:59.249Z,6.20
2022-08-28T06:42:34.449Z,6.78
2022-08-28T06:45:03.077Z,6.13
2022-08-28T06:47:32.026Z,6.78
2022-08-28T06:50:03.698Z,6.43
2022-08-28T06:52:32.299Z,6.82
2022-08-28T06:55:01.077Z,6.78
2022-08-28T06:57:32.106Z,6.45
2022-08-28T07:00:01.280Z,5.78
2022-08-28T07:02:33.326Z,6.05
2022-08-28T07:07:32.360Z,5.97
2022-08-28T07:10:02.247Z,5.85
2022-08-28T07:12:31.208Z,6.13
2022-08-28T07:15:03.280Z,6.00
2022-08-28T07:17:45.482Z,5.95
2022-08-28T07:20:18.360Z,6.03
2022-08-28T07:22:57.351Z,6.78
2022-08-28T07:26:05.057Z,5.40
2022-08-28T07:29:10.465Z,5.70
2022-08-28T07:32:26.594Z,5.38
2022-08-28T07:35:01.455Z,6.07
2022-08-28T07:37:34.154Z,5.82
2022-08-28T07:40:05.526Z,6.72
2022-08-28T07:42:59.481Z,5.93
2022-08-28T07:45:30.708Z,6.25
2022-08-28T07:48:16.490Z,5.85
2022-08-28T07:50:57.603Z,5.78
2022-08-28T07:53:25.983Z,5.38
2022-08-28T07:55:54.385Z,5.35
2022-08-28T07:58:28.723Z,5.57
2022-08-28T08:00:58.418Z,5.13
2022-08-28T08:03:27.174Z,5.40
2022-08-28T08:06:02.646Z,5.00
2022-08-28T08:08:34.029Z,5.85
2022-08-28T08:11:18.236Z,4.93
2022-08-28T08:13:48.005Z,5.78
2022-08-28T08:16:34.947Z,5.10
2022-08-28T08:19:04.512Z,5.55
2022-08-28T08:21:34.123Z,5.88
2022-08-28T08:26:36.137Z,6.00
2022-08-28T08:29:05.414Z,5.63
2022-08-28T08:31:35.265Z,5.30
2022-08-28T08:34:05.486Z,5.07
2022-08-28T08:36:37.395Z,5.53
2022-08-28T08:39:09.699Z,5.30
2022-08-28T08:41:51.714Z,5.28
2022-08-28T08:44:35.018Z,5.47
2022-08-28T08:47:34.947Z,6.80
2022-08-28T08:50:26.145Z,5.55
2022-08-28T08:53:29.213Z,5.45
2022-08-28T08:55:58.775Z,6.07
2022-08-28T08:58:41.595Z,5.85
2022-08-28T09:01:30.186Z,4.82
2022-08-28T09:04:15.761Z,6.05
2022-08-28T09:06:53.362Z,5.55
2022-08-28T09:09:32.892Z,5.55
2022-08-28T09:12:08.732Z,5.07
2022-08-28T09:14:47.486Z,5.80
2022-08-28T09:17:20.437Z,5.55
2022-08-28T09:19:49.589Z,5.18
2022-08-28T09:22:18.823Z,6.30
2022-08-28T09:24:47.230Z,6.10
2022-08-28T09:27:32.341Z,5.88
2022-08-28T09:30:11.068Z,5.78
2022-08-28T09:32:44.909Z,6.00
2022-08-28T09:35:34.550Z,6.63
2022-08-28T09:38:22.032Z,5.47
2022-08-28T09:41:29.236Z,6.13
2022-08-28T09:43:58.491Z,6.35
2022-08-28T09:46:32.597Z,5.65
2022-08-28T09:49:20.825Z,6.85
2022-08-28T09:51:51.088Z,6.05
2022-08-28T09:54:32.249Z,6.38
2022-08-28T10:00:07.597Z,6.15
2022-08-28T10:03:21.669Z,5.95
2022-08-28T10:06:43.554Z,6.05
2022-08-28T10:09:33.752Z,7.55
2022-08-28T10:12:16.341Z,5.57
2022-08-28T10:14:53.696Z,7.07
2022-08-28T10:17:50.569Z,6.80
2022-08-28T10:20:55.711Z,6.75
2022-08-28T10:23:55.039Z,6.18
2022-08-28T10:26:36.332Z,6.43
2022-08-28T10:29:39.461Z,6.03
2022-08-28T10:32:39.647Z,6.28
2022-08-28T10:35:46.913Z,5.90
2022-08-28T10:38:48.301Z,6.07
2022-08-28T10:41:31.094Z,6.53
2022-08-28T10:44:04.493Z,6.22
2022-08-28T10:46:49.584Z,6.90
2022-08-28T10:49:40.164Z,6.57
2022-08-28T10:52:27.937Z,6.63
2022-08-28T10:55:14.629Z,5.60
2022-08-28T10:57:52.783Z,6.05
2022-08-28T11:00:25.844Z,7.13
2022-08-28T11:03:22.175Z,6.82
2022-08-28T11:06:11.822Z,6.40
2022-08-28T11:08:40.963Z,6.40
2022-08-28T11:11:15.447Z,5.82
2022-08-28T11:13:49.966Z,5.60
2022-08-28T11:16:47.410Z,6.97
2022-08-28T11:20:04.632Z,6.82
2022-08-28T11:23:17.215Z,5.95
2022-08-28T11:26:04.616Z,6.45
2022-08-28T11:28:49.170Z,6.70
2022-08-28T11:34:04.420Z,5.88
2022-08-28T11:36:35.973Z,7.75
2022-08-28T11:39:19.660Z,6.28
2022-08-28T11:42:14.403Z,6.25
2022-08-28T11:44:46.161Z,5.97
2022-08-28T11:47:37.085Z,6.15
2022-08-28T11:50:19.440Z,5.70
2022-08-28T11:53:36.907Z,5.97
2022-08-28T11:56:44.408Z,7.00
2022-08-28T11:59:35.414Z,6.60
2022-08-28T12:02:49.303Z,5.38
2022-08-28T12:05:31.294Z,5.75
2022-08-28T12:08:03.331Z,5.75
2022-08-28T12:16:09.221Z,5.63
2022-08-28T12:18:43.654Z,6.35
2022-08-28T12:21:25.830Z,5.80
2022-08-28T12:24:07.227Z,5.80
2022-08-28T12:26:48.542Z,6.28
2022-08-28T12:29:35.829Z,6.20
2022-08-28T12:32:37.130Z,6.22
2022-08-28T12:35:17.367Z,5.53
2022-08-28T12:38:18.916Z,5.43
2022-08-28T12:40:51.616Z,5.20
2022-08-28T12:43:44.357Z,6.30
2022-08-28T12:46:42.537Z,6.13
2022-08-28T12:49:36.494Z,6.32
2022-08-28T12:52:25.702Z,6.40
2022-08-28T12:54:59.750Z,6.43
2022-08-28T12:57:35.299Z,6.13
2022-08-28T13:00:10.237Z,6.30
2022-08-28T13:02:41.386Z,6.60
2022-08-28T13:05:31.512Z,8.00
2022-08-28T13:08:07.847Z,7.30
2022-08-28T13:10:47.644Z,7.75
2022-08-28T13:13:38.395Z,7.25
2022-08-28T13:16:35.379Z,7.57
2022-08-28T13:19:07.975Z,8.02
2022-08-28T13:22:00.883Z,9.13
2022-08-28T13:24:50.035Z,9.02
2022-08-28T13:27:24.651Z,10.13
2022-08-28T13:30:21.285Z,9.25
2022-08-28T13:33:05.167Z,9.45
2022-08-28T13:35:40.452Z,9.38
2022-08-28T13:38:14.260Z,9.18
2022-08-28T13:40:59.106Z,11.20
2022-08-28T13:43:42.194Z,10.93
2022-08-28T13:46:10.902Z,11.55
2022-08-28T13:48:42.744Z,13.55
2022-08-28T13:51:20.757Z,15.23
2022-08-28T13:53:51.062Z,16.40
2022-08-28T13:56:22.024Z,15.93
2022-08-28T13:58:57.952Z,15.27
2022-08-28T14:02:09.448Z,14.70
2022-08-28T14:04:40.009Z,15.68
2022-08-28T14:07:15.008Z,16.02
2022-08-28T14:09:46.627Z,15.90
2022-08-28T14:12:34.599Z,15.90
2022-08-28T14:15:04.259Z,17.80
2022-08-28T14:17:38.073Z,18.27
2022-08-28T14:20:13.232Z,19.42
2022-08-28T14:22:49.367Z,20.77
2022-08-28T14:25:19.336Z,20.83
2022-08-28T14:27:49.896Z,20.23
2022-08-28T14:30:18.889Z,21.33
2022-08-28T14:35:16.922Z,21.33
2022-08-28T14:37:46.443Z,23.60
2022-08-28T14:40:16.288Z,24.15
2022-08-28T14:42:46.120Z,24.00
2022-08-28T14:45:16.295Z,24.23
2022-08-28T14:47:47.190Z,22.02
2022-08-28T14:50:16.965Z,22.02
2022-08-28T14:52:45.855Z,20.63
2022-08-28T14:55:21.055Z,22.50
2022-08-28T14:57:52.535Z,21.08
2022-08-28T15:00:23.618Z,22.90
2022-08-28T15:02:55.348Z,27.52
2022-08-28T15:05:29.883Z,24.13
2022-08-28T15:08:00.661Z,22.25
2022-08-28T15:10:30.496Z,23.48
2022-08-28T15:13:01.219Z,23.88
2022-08-28T15:15:33.906Z,27.70
2022-08-28T15:18:03.410Z,23.42
2022-08-28T15:20:32.245Z,23.88
2022-08-28T15:23:00.849Z,20.42
2022-08-28T15:25:28.920Z,18.58
2022-08-28T15:27:58.105Z,18.75
2022-08-28T15:30:26.471Z,17.60
2022-08-28T15:32:56.807Z,17.77
2022-08-28T15:35:25.954Z,16.73
2022-08-28T15:38:14.609Z,15.70
2022-08-28T15:41:04.740Z,16.15
2022-08-28T15:43:33.269Z,15.07
2022-08-28T15:46:01.770Z,14.45
2022-08-28T15:51:01.982Z,13.57
2022-08-28T15:53:34.015Z,12.23
2022-08-28T15:56:03.692Z,12.85
2022-08-28T15:58:32.172Z,13.45
2022-08-28T16:01:19.249Z,12.15
2022-08-28T16:03:48.831Z,12.25
2022-08-28T16:06:20.699Z,11.18
2022-08-28T16:08:50.353Z,11.85
2022-08-28T16:11:21.083Z,10.63
2022-08-28T16:13:52.684Z,11.13
2022-08-28T16:16:22.293Z,11.57
2022-08-28T16:21:20.409Z,9.57
2022-08-28T16:23:56.162Z,10.05
2022-08-28T16:26:24.403Z,8.45
2022-08-28T16:28:52.703Z,8.13
2022-08-28T16:31:22.106Z,7.43
2022-08-28T16:33:52.738Z,7.97
2022-08-28T16:36:23.663Z,6.15
2022-08-28T16:39:02.975Z,6.80
2022-08-28T16:41:33.678Z,6.30
2022-08-28T16:44:04.717Z,6.00
2022-08-28T16:46:33.812Z,5.65
2022-08-28T16:49:02.912Z,7.07
2022-08-28T16:51:32.054Z,6.07
2022-08-28T16:54:01.415Z,6.30
2022-08-28T16:56:34.098Z,5.90
2022-08-28T16:59:03.775Z,6.05
2022-08-28T17:01:42.739Z,6.72
2022-08-28T17:04:12.871Z,6.10
2022-08-28T17:06:44.541Z,6.72
2022-08-28T17:09:15.980Z,6.00
2022-08-28T17:11:46.468Z,5.88
2022-08-28T17:14:22.575Z,6.03
2022-08-28T17:16:54.110Z,5.88
2022-08-28T17:19:24.005Z,4.75
2022-08-28T17:22:11.934Z,5.53
2022-08-28T17:24:40.510Z,5.22
2022-08-28T17:27:09.625Z,6.18
2022-08-28T17:29:39.383Z,5.55
2022-08-28T17:32:08.367Z,6.00
2022-08-28T17:37:16.420Z,5.72
2022-08-28T17:39:49.250Z,6.43
2022-08-28T17:42:18.074Z,7.25
2022-08-28T17:44:47.899Z,7.40
2022-08-28T17:47:16.856Z,7.80
2022-08-28T17:49:51.771Z,8.23
2022-08-28T17:52:30.635Z,7.10
2022-08-28T17:58:12.949Z,7.07
2022-08-28T18:01:08.686Z,6.22
2022-08-28T18:06:46.087Z,6.07
2022-08-28T18:09:16.408Z,5.28
2022-08-28T18:11:56.375Z,5.43
2022-08-28T18:14:35.976Z,6.20
2022-08-28T18:17:11.979Z,5.43
2022-08-28T18:19:40.906Z,6.32
2022-08-28T18:22:13.773Z,6.97
2022-08-28T18:24:44.253Z,6.40
2022-08-28T18:27:16.466Z,6.85
2022-08-28T18:29:50.415Z,7.00
2022-08-28T18:32:22.278Z,6.88
2022-08-28T18:34:56.229Z,7.68
2022-08-28T18:37:27.524Z,6.88
2022-08-28T18:40:03.867Z,6.38
2022-08-28T18:42:44.004Z,6.38
2022-08-28T18:45:12.817Z,6.10
2022-08-28T18:47:43.978Z,5.93
2022-08-28T18:50:17.225Z,6.90
2022-08-28T18:52:54.809Z,7.03
2022-08-28T18:55:27.399Z,7.30
2022-08-28T18:57:57.198Z,6.43
2022-08-28T19:00:28.389Z,6.88
2022-08-28T19:03:02.568Z,7.18
2022-08-28T19:05:36.343Z,7.85
2022-08-28T19:08:08.558Z,6.93
2022-08-28T19:10:38.842Z,7.13
2022-08-28T19:13:09.216Z,7.18
2022-08-28T19:15:40.550Z,6.22
2022-08-28T19:18:20.374Z,7.68
2022-08-28T19:20:52.017Z,6.95
2022-08-28T19:23:21.638Z,6.82
2022-08-28T19:25:51.004Z,6.90
2022-08-28T19:28:20.538Z,6.63
2022-08-28T19:30:50.927Z,6.75
2022-08-28T19:33:20.162Z,7.20
2022-08-28T19:35:48.373Z,5.88
2022-08-28T19:38:19.064Z,6.65
2022-08-28T19:40:53.882Z,6.63
2022-08-28T19:43:41.618Z,6.70
2022-08-28T19:46:19.541Z,6.85
2022-08-28T19:48:50.847Z,7.53
2022-08-28T19:51:23.990Z,6.22
2022-08-28T19:53:58.469Z,6.88
2022-08-28T19:56:31.839Z,6.55
2022-08-28T19:59:02.961Z,6.85
2022-08-28T20:01:35.592Z,6.97
2022-08-28T20:04:08.992Z,6.57
2022-08-28T20:06:41.138Z,6.38
2022-08-28T20:09:13.197Z,6.40
2022-08-28T20:11:50.679Z,7.65
2022-08-28T20:14:24.821Z,6.70
2022-08-28T20:16:59.170Z,6.80
2022-08-28T20:19:34.026Z,7.80
2022-08-28T20:22:14.188Z,8.23
2022-08-28T20:24:48.226Z,6.53
2022-08-28T20:27:17.867Z,8.38
2022-08-28T20:29:49.795Z,7.80
2022-08-28T20:32:24.125Z,8.57
2022-08-28T20:34:55.849Z,7.82
2022-08-28T20:37:26.518Z,7.45
2022-08-28T20:40:02.929Z,6.80
2022-08-28T20:42:38.295Z,6.85
2022-08-28T20:45:09.529Z,6.72
2022-08-28T20:47:38.764Z,6.75
2022-08-28T20:50:07.504Z,7.45
2022-08-28T20:52:43.445Z,6.63
2022-08-28T20:55:14.826Z,9.40
2022-08-28T20:57:54.229Z,8.02
2022-08-28T21:00:28.722Z,8.18
2022-08-28T21:02:58.579Z,7.22
2022-08-28T21:11:03.739Z,7.03
2022-08-28T21:13:34.437Z,7.20
2022-08-28T21:16:09.532Z,7.10
2022-08-28T21:18:45.514Z,7.20
2022-08-28T21:21:28.702Z,8.63
2022-08-28T21:23:58.454Z,8.13
2022-08-28T21:26:26.827Z,7.82
2022-08-28T21:28:55.377Z,7.72
2022-08-28T21:31:24.567Z,7.20
2022-08-28T21:33:55.010Z,7.50
2022-08-28T21:36:25.755Z,6.85
2022-08-28T21:38:53.951Z,7.15
2022-08-28T21:41:25.455Z,7.95
2022-08-28T21:43:56.118Z,7.45
2022-08-28T21:46:24.748Z,7.15
2022-08-28T21:48:55.118Z,8.38
2022-08-28T21:51:25.549Z,7.10
2022-08-28T21:53:56.115Z,7.95
2022-08-28T21:56:27.092Z,7.63
2022-08-28T21:58:57.648Z,7.32
2022-08-28T22:01:34.396Z,7.43
2022-08-28T22:04:02.986Z,8.30
2022-08-28T22:06:32.134Z,8.00
2022-08-28T22:09:02.652Z,8.40
2022-08-28T22:11:31.337Z,7.45
2022-08-28T22:13:59.499Z,7.72
2022-08-28T22:16:30.186Z,8.27
2022-08-28T22:18:59.074Z,9.00
2022-08-28T22:21:46.402Z,7.82
2022-08-28T22:24:15.436Z,8.27
2022-08-28T22:26:44.213Z,8.57
2022-08-28T22:29:12.844Z,8.23
2022-08-28T22:31:46.076Z,7.90
2022-08-28T22:34:15.276Z,8.73
2022-08-28T22:36:43.762Z,7.70
2022-08-28T22:39:12.124Z,8.82
2022-08-28T22:41:40.694Z,8.52
2022-08-28T22:44:09.291Z,8.50
2022-08-28T22:46:37.732Z,7.43
2022-08-28T22:49:05.886Z,8.77
2022-08-28T22:51:37.051Z,7.32
2022-08-28T22:54:07.534Z,7.78
2022-08-28T22:56:36.780Z,7.78
2022-08-28T22:59:05.206Z,8.18
2022-08-28T23:01:34.611Z,7.60
2022-08-28T23:04:03.279Z,8.30
2022-08-28T23:06:32.671Z,7.63
2022-08-28T23:09:03.354Z,8.43
2022-08-28T23:11:31.524Z,7.88
2022-08-28T23:13:59.967Z,8.23
2022-08-28T23:16:28.494Z,8.07
2022-08-28T23:19:13.890Z,7.93
2022-08-28T23:21:43.998Z,8.30
2022-08-28T23:24:14.270Z,7.95
2022-08-28T23:26:44.845Z,8.30
2022-08-28T23:29:14.624Z,8.75
2022-08-28T23:34:11.278Z,8.13
2022-08-28T23:36:43.707Z,7.70
2022-08-28T23:39:13.615Z,8.50
2022-08-28T23:41:42.017Z,7.93
2022-08-28T23:44:10.611Z,8.45
2022-08-28T23:46:41.144Z,7.95
2022-08-28T23:49:11.122Z,8.23
2022-08-28T23:51:43.807Z,8.35
2022-08-28T23:54:20.829Z,8.90
2022-08-28T23:56:50.031Z,9.27
2022-08-28T23:59:21.301Z,9.02
